sensor_id;sensor_type;location;lat;lon;timestamp;temperature;humidity
292;DHT22;23311;48.776;9.162;2023-04-24T00:01:05;11.40;95.50
292;DHT22;23311;48.776;9.162;2023-04-24T00:03:36;11.50;95.50
292;DHT22;23311;48.776;9.162;2023-04-24T00:06:06;11.50;95.50
292;DHT22;23311;48.776;9.162;2023-04-24T00:08:34;11.60;95.50
292;DHT22;23311;48.776;9.162;2023-04-24T00:11:03;11.60;95.50
292;DHT22;23311;48.776;9.162;2023-04-24T00:13:31;11.60;95.50
292;DHT22;23311;48.776;9.162;2023-04-24T00:15:59;11.70;95.50
292;DHT22;23311;48.776;9.162;2023-04-24T00:18:27;11.80;95.50
292;DHT22;23311;48.776;9.162;2023-04-24T00:20:57;11.80;95.50
292;DHT22;23311;48.776;9.162;2023-04-24T00:23:25;11.90;95.50
292;DHT22;23311;48.776;9.162;2023-04-24T00:25:53;11.80;95.50
292;DHT22;23311;48.776;9.162;2023-04-24T00:28:21;11.90;95.50
292;DHT22;23311;48.776;9.162;2023-04-24T00:30:49;11.90;95.50
292;DHT22;23311;48.776;9.162;2023-04-24T00:33:17;11.90;95.50
292;DHT22;23311;48.776;9.162;2023-04-24T00:35:45;11.90;95.50
292;DHT22;23311;48.776;9.162;2023-04-24T00:38:14;11.90;95.50
292;DHT22;23311;48.776;9.162;2023-04-24T00:40:43;12.00;95.50
292;DHT22;23311;48.776;9.162;2023-04-24T00:43:11;12.00;95.50
292;DHT22;23311;48.776;9.162;2023-04-24T00:45:39;11.90;95.50
292;DHT22;23311;48.776;9.162;2023-04-24T00:48:08;11.90;95.50
292;DHT22;23311;48.776;9.162;2023-04-24T00:50:36;11.90;95.50
292;DHT22;23311;48.776;9.162;2023-04-24T00:53:05;12.00;95.50
292;DHT22;23311;48.776;9.162;2023-04-24T00:55:35;11.90;95.50
292;DHT22;23311;48.776;9.162;2023-04-24T00:58:04;12.00;95.50
292;DHT22;23311;48.776;9.162;2023-04-24T01:00:32;12.00;95.50
292;DHT22;23311;48.776;9.162;2023-04-24T01:03:01;12.00;95.50
292;DHT22;23311;48.776;9.162;2023-04-24T01:05:33;12.00;95.50
292;DHT22;23311;48.776;9.162;2023-04-24T01:08:01;12.10;95.50
292;DHT22;23311;48.776;9.162;2023-04-24T01:10:31;12.10;95.50
292;DHT22;23311;48.776;9.162;2023-04-24T01:13:02;12.00;95.50
292;DHT22;23311;48.776;9.162;2023-04-24T01:15:30;12.00;95.50
292;DHT22;23311;48.776;9.162;2023-04-24T01:17:58;12.00;95.50
292;DHT22;23311;48.776;9.162;2023-04-24T01:20:26;11.90;95.50
292;DHT22;23311;48.776;9.162;2023-04-24T01:22:56;11.90;95.50
292;DHT22;23311;48.776;9.162;2023-04-24T01:25:26;12.00;95.50
292;DHT22;23311;48.776;9.162;2023-04-24T01:27:55;11.90;95.50
292;DHT22;23311;48.776;9.162;2023-04-24T01:30:24;11.90;95.50
292;DHT22;23311;48.776;9.162;2023-04-24T01:32:52;11.80;95.50
292;DHT22;23311;48.776;9.162;2023-04-24T01:35:21;11.70;95.50
292;DHT22;23311;48.776;9.162;2023-04-24T01:37:49;11.50;95.50
292;DHT22;23311;48.776;9.162;2023-04-24T01:40:19;11.40;95.50
292;DHT22;23311;48.776;9.162;2023-04-24T01:42:47;11.30;95.50
292;DHT22;23311;48.776;9.162;2023-04-24T01:45:15;11.20;95.50
292;DHT22;23311;48.776;9.162;2023-04-24T01:47:44;11.10;95.50
292;DHT22;23311;48.776;9.162;2023-04-24T01:50:13;11.20;95.50
292;DHT22;23311;48.776;9.162;2023-04-24T01:52:41;11.20;95.50
292;DHT22;23311;48.776;9.162;2023-04-24T01:55:09;11.20;95.50
292;DHT22;23311;48.776;9.162;2023-04-24T01:57:39;11.20;95.50
292;DHT22;23311;48.776;9.162;2023-04-24T02:00:08;11.10;95.50
292;DHT22;23311;48.776;9.162;2023-04-24T02:02:39;11.10;95.50
292;DHT22;23311;48.776;9.162;2023-04-24T02:05:09;11.10;95.50
292;DHT22;23311;48.776;9.162;2023-04-24T02:07:37;11.10;95.50
292;DHT22;23311;48.776;9.162;2023-04-24T02:10:07;11.10;95.50
292;DHT22;23311;48.776;9.162;2023-04-24T02:12:35;11.10;95.50
292;DHT22;23311;48.776;9.162;2023-04-24T02:15:05;11.10;95.50
292;DHT22;23311;48.776;9.162;2023-04-24T02:17:34;11.10;95.50
292;DHT22;23311;48.776;9.162;2023-04-24T02:20:03;11.10;95.50
292;DHT22;23311;48.776;9.162;2023-04-24T02:22:32;11.10;95.50
292;DHT22;23311;48.776;9.162;2023-04-24T02:25:00;11.20;95.50
292;DHT22;23311;48.776;9.162;2023-04-24T02:27:28;11.20;95.50
292;DHT22;23311;48.776;9.162;2023-04-24T02:29:57;11.20;95.50
292;DHT22;23311;48.776;9.162;2023-04-24T02:32:26;11.20;95.50
292;DHT22;23311;48.776;9.162;2023-04-24T02:34:54;11.20;95.50
292;DHT22;23311;48.776;9.162;2023-04-24T02:37:22;11.30;95.50
292;DHT22;23311;48.776;9.162;2023-04-24T02:39:50;11.30;95.50
292;DHT22;23311;48.776;9.162;2023-04-24T02:42:18;11.30;95.50
292;DHT22;23311;48.776;9.162;2023-04-24T02:44:46;11.40;95.50
292;DHT22;23311;48.776;9.162;2023-04-24T02:47:14;11.40;95.50
292;DHT22;23311;48.776;9.162;2023-04-24T02:49:43;11.30;95.50
292;DHT22;23311;48.776;9.162;2023-04-24T02:52:11;11.20;95.50
292;DHT22;23311;48.776;9.162;2023-04-24T02:54:40;11.00;95.50
292;DHT22;23311;48.776;9.162;2023-04-24T02:57:08;10.90;95.50
292;DHT22;23311;48.776;9.162;2023-04-24T02:59:36;10.80;95.50
292;DHT22;23311;48.776;9.162;2023-04-24T03:02:04;10.70;95.50
292;DHT22;23311;48.776;9.162;2023-04-24T03:04:32;10.60;95.50
292;DHT22;23311;48.776;9.162;2023-04-24T03:07:02;10.60;95.50
292;DHT22;23311;48.776;9.162;2023-04-24T03:09:31;10.60;95.50
292;DHT22;23311;48.776;9.162;2023-04-24T03:11:59;10.50;95.50
292;DHT22;23311;48.776;9.162;2023-04-24T03:14:27;10.40;95.50
292;DHT22;23311;48.776;9.162;2023-04-24T03:16:57;10.40;95.50
292;DHT22;23311;48.776;9.162;2023-04-24T03:19:26;10.40;95.50
292;DHT22;23311;48.776;9.162;2023-04-24T03:21:54;10.30;95.50
292;DHT22;23311;48.776;9.162;2023-04-24T03:24:23;10.20;95.50
292;DHT22;23311;48.776;9.162;2023-04-24T03:26:54;10.30;95.50
292;DHT22;23311;48.776;9.162;2023-04-24T03:29:23;10.40;95.50
292;DHT22;23311;48.776;9.162;2023-04-24T03:31:51;10.20;95.50
292;DHT22;23311;48.776;9.162;2023-04-24T03:34:19;10.10;95.50
292;DHT22;23311;48.776;9.162;2023-04-24T03:36:47;10.10;95.50
292;DHT22;23311;48.776;9.162;2023-04-24T03:39:15;10.20;95.50
292;DHT22;23311;48.776;9.162;2023-04-24T03:41:45;10.20;95.50
292;DHT22;23311;48.776;9.162;2023-04-24T03:44:13;10.20;95.50
292;DHT22;23311;48.776;9.162;2023-04-24T03:46:41;10.30;95.50
292;DHT22;23311;48.776;9.162;2023-04-24T03:49:09;10.20;95.50
292;DHT22;23311;48.776;9.162;2023-04-24T03:51:37;10.10;95.50
292;DHT22;23311;48.776;9.162;2023-04-24T03:54:06;10.10;95.50
292;DHT22;23311;48.776;9.162;2023-04-24T03:56:34;10.00;95.50
292;DHT22;23311;48.776;9.162;2023-04-24T03:59:03;10.20;95.50
292;DHT22;23311;48.776;9.162;2023-04-24T04:01:31;10.10;95.50
292;DHT22;23311;48.776;9.162;2023-04-24T04:04:03;10.00;95.50
292;DHT22;23311;48.776;9.162;2023-04-24T04:06:32;9.90;95.50
292;DHT22;23311;48.776;9.162;2023-04-24T04:09:00;10.00;95.50
292;DHT22;23311;48.776;9.162;2023-04-24T04:11:28;10.00;95.50
292;DHT22;23311;48.776;9.162;2023-04-24T04:13:56;10.00;95.50
292;DHT22;23311;48.776;9.162;2023-04-24T04:16:26;10.10;95.50
292;DHT22;23311;48.776;9.162;2023-04-24T04:18:54;10.20;95.50
292;DHT22;23311;48.776;9.162;2023-04-24T04:21:22;10.40;95.50
292;DHT22;23311;48.776;9.162;2023-04-24T04:23:50;10.40;95.50
292;DHT22;23311;48.776;9.162;2023-04-24T04:26:18;10.50;95.50
292;DHT22;23311;48.776;9.162;2023-04-24T04:28:47;10.60;95.50
292;DHT22;23311;48.776;9.162;2023-04-24T04:31:16;10.60;95.50
292;DHT22;23311;48.776;9.162;2023-04-24T04:33:46;10.50;95.50
292;DHT22;23311;48.776;9.162;2023-04-24T04:36:14;10.50;95.50
292;DHT22;23311;48.776;9.162;2023-04-24T04:38:44;10.40;95.50
292;DHT22;23311;48.776;9.162;2023-04-24T04:41:12;10.20;95.50
292;DHT22;23311;48.776;9.162;2023-04-24T04:43:40;10.10;95.50
292;DHT22;23311;48.776;9.162;2023-04-24T04:46:09;10.10;95.50
292;DHT22;23311;48.776;9.162;2023-04-24T04:48:38;10.00;95.50
292;DHT22;23311;48.776;9.162;2023-04-24T04:51:07;10.00;95.50
292;DHT22;23311;48.776;9.162;2023-04-24T04:53:35;9.90;95.50
292;DHT22;23311;48.776;9.162;2023-04-24T04:56:04;9.70;95.50
292;DHT22;23311;48.776;9.162;2023-04-24T04:58:32;9.60;95.50
292;DHT22;23311;48.776;9.162;2023-04-24T05:01:00;9.60;95.50
292;DHT22;23311;48.776;9.162;2023-04-24T05:03:29;9.50;95.50
292;DHT22;23311;48.776;9.162;2023-04-24T05:05:57;9.50;95.50
292;DHT22;23311;48.776;9.162;2023-04-24T05:08:27;9.50;95.50
292;DHT22;23311;48.776;9.162;2023-04-24T05:10:55;9.50;95.50
292;DHT22;23311;48.776;9.162;2023-04-24T05:13:23;9.50;95.50
292;DHT22;23311;48.776;9.162;2023-04-24T05:16:05;9.50;95.50
292;DHT22;23311;48.776;9.162;2023-04-24T05:18:33;9.40;95.50
292;DHT22;23311;48.776;9.162;2023-04-24T05:21:02;9.50;95.50
292;DHT22;23311;48.776;9.162;2023-04-24T05:23:31;9.50;95.50
292;DHT22;23311;48.776;9.162;2023-04-24T05:25:59;9.50;95.50
292;DHT22;23311;48.776;9.162;2023-04-24T05:28:27;9.50;95.50
292;DHT22;23311;48.776;9.162;2023-04-24T05:30:55;9.60;95.50
292;DHT22;23311;48.776;9.162;2023-04-24T05:33:23;9.60;95.50
292;DHT22;23311;48.776;9.162;2023-04-24T05:35:51;9.60;95.50
292;DHT22;23311;48.776;9.162;2023-04-24T05:38:19;9.70;95.50
292;DHT22;23311;48.776;9.162;2023-04-24T05:40:49;9.80;95.50
292;DHT22;23311;48.776;9.162;2023-04-24T05:43:17;9.70;95.50
292;DHT22;23311;48.776;9.162;2023-04-24T05:45:45;9.80;95.50
292;DHT22;23311;48.776;9.162;2023-04-24T05:48:13;9.80;95.50
292;DHT22;23311;48.776;9.162;2023-04-24T05:50:41;9.90;95.50
292;DHT22;23311;48.776;9.162;2023-04-24T05:53:09;10.00;95.50
292;DHT22;23311;48.776;9.162;2023-04-24T05:55:38;10.10;95.50
292;DHT22;23311;48.776;9.162;2023-04-24T05:58:07;10.20;95.50
292;DHT22;23311;48.776;9.162;2023-04-24T06:00:35;10.20;95.50
292;DHT22;23311;48.776;9.162;2023-04-24T06:03:04;10.20;95.50
292;DHT22;23311;48.776;9.162;2023-04-24T06:05:32;10.20;95.50
292;DHT22;23311;48.776;9.162;2023-04-24T06:08:01;10.20;95.50
292;DHT22;23311;48.776;9.162;2023-04-24T06:10:29;10.20;95.50
292;DHT22;23311;48.776;9.162;2023-04-24T06:12:57;10.20;95.50
292;DHT22;23311;48.776;9.162;2023-04-24T06:15:30;10.20;95.50
292;DHT22;23311;48.776;9.162;2023-04-24T06:17:58;10.20;95.50
292;DHT22;23311;48.776;9.162;2023-04-24T06:20:26;10.20;95.50
292;DHT22;23311;48.776;9.162;2023-04-24T06:22:55;10.20;95.50
292;DHT22;23311;48.776;9.162;2023-04-24T06:25:24;10.20;95.50
292;DHT22;23311;48.776;9.162;2023-04-24T06:27:52;10.40;95.50
292;DHT22;23311;48.776;9.162;2023-04-24T06:30:21;10.60;95.50
292;DHT22;23311;48.776;9.162;2023-04-24T06:32:50;10.90;95.50
292;DHT22;23311;48.776;9.162;2023-04-24T06:35:18;10.90;95.50
292;DHT22;23311;48.776;9.162;2023-04-24T06:37:46;11.40;95.50
292;DHT22;23311;48.776;9.162;2023-04-24T06:40:15;11.70;95.50
292;DHT22;23311;48.776;9.162;2023-04-24T06:42:45;11.90;95.50
292;DHT22;23311;48.776;9.162;2023-04-24T06:45:13;12.00;95.50
292;DHT22;23311;48.776;9.162;2023-04-24T06:47:41;13.20;95.50
292;DHT22;23311;48.776;9.162;2023-04-24T06:50:11;14.80;95.50
292;DHT22;23311;48.776;9.162;2023-04-24T06:52:39;16.60;91.20
292;DHT22;23311;48.776;9.162;2023-04-24T06:55:08;17.30;86.10
292;DHT22;23311;48.776;9.162;2023-04-24T06:57:37;16.40;89.10
292;DHT22;23311;48.776;9.162;2023-04-24T07:00:06;16.80;87.60
292;DHT22;23311;48.776;9.162;2023-04-24T07:02:36;15.80;88.10
292;DHT22;23311;48.776;9.162;2023-04-24T07:05:04;16.30;88.30
292;DHT22;23311;48.776;9.162;2023-04-24T07:07:34;15.30;88.10
292;DHT22;23311;48.776;9.162;2023-04-24T07:10:05;14.10;92.20
292;DHT22;23311;48.776;9.162;2023-04-24T07:12:33;14.10;92.10
292;DHT22;23311;48.776;9.162;2023-04-24T07:15:02;13.20;94.50
292;DHT22;23311;48.776;9.162;2023-04-24T07:17:31;12.70;95.50
292;DHT22;23311;48.776;9.162;2023-04-24T07:19:59;12.40;95.50
292;DHT22;23311;48.776;9.162;2023-04-24T07:22:27;12.50;95.50
292;DHT22;23311;48.776;9.162;2023-04-24T07:24:56;12.40;95.50
292;DHT22;23311;48.776;9.162;2023-04-24T07:27:25;12.60;95.50
292;DHT22;23311;48.776;9.162;2023-04-24T07:29:53;12.70;95.50
292;DHT22;23311;48.776;9.162;2023-04-24T07:32:21;12.80;94.00
292;DHT22;23311;48.776;9.162;2023-04-24T07:34:49;13.10;92.60
292;DHT22;23311;48.776;9.162;2023-04-24T07:37:17;13.60;92.00
292;DHT22;23311;48.776;9.162;2023-04-24T07:39:45;15.10;88.90
292;DHT22;23311;48.776;9.162;2023-04-24T07:42:14;14.80;86.00
292;DHT22;23311;48.776;9.162;2023-04-24T07:44:42;15.90;84.90
292;DHT22;23311;48.776;9.162;2023-04-24T07:47:10;16.10;82.20
292;DHT22;23311;48.776;9.162;2023-04-24T07:49:38;15.00;82.60
292;DHT22;23311;48.776;9.162;2023-04-24T07:52:07;14.10;84.70
292;DHT22;23311;48.776;9.162;2023-04-24T07:54:35;13.60;86.70
292;DHT22;23311;48.776;9.162;2023-04-24T07:57:04;13.30;86.80
292;DHT22;23311;48.776;9.162;2023-04-24T07:59:34;13.30;86.90
292;DHT22;23311;48.776;9.162;2023-04-24T08:02:02;13.30;87.10
292;DHT22;23311;48.776;9.162;2023-04-24T08:04:31;13.10;86.60
292;DHT22;23311;48.776;9.162;2023-04-24T08:06:59;13.10;86.10
292;DHT22;23311;48.776;9.162;2023-04-24T08:09:27;12.90;86.60
292;DHT22;23311;48.776;9.162;2023-04-24T08:11:55;12.70;87.00
292;DHT22;23311;48.776;9.162;2023-04-24T08:14:24;12.30;87.30
292;DHT22;23311;48.776;9.162;2023-04-24T08:16:54;12.20;87.90
292;DHT22;23311;48.776;9.162;2023-04-24T08:19:22;12.30;87.60
292;DHT22;23311;48.776;9.162;2023-04-24T08:21:50;12.60;87.40
292;DHT22;23311;48.776;9.162;2023-04-24T08:24:18;12.80;87.40
292;DHT22;23311;48.776;9.162;2023-04-24T08:26:46;13.40;85.90
292;DHT22;23311;48.776;9.162;2023-04-24T08:29:17;14.20;83.90
292;DHT22;23311;48.776;9.162;2023-04-24T08:31:45;13.90;83.40
292;DHT22;23311;48.776;9.162;2023-04-24T08:34:14;13.70;84.60
292;DHT22;23311;48.776;9.162;2023-04-24T08:36:42;13.90;84.20
292;DHT22;23311;48.776;9.162;2023-04-24T08:39:13;13.20;84.80
292;DHT22;23311;48.776;9.162;2023-04-24T08:41:42;12.70;86.20
292;DHT22;23311;48.776;9.162;2023-04-24T08:44:12;12.40;86.30
292;DHT22;23311;48.776;9.162;2023-04-24T08:46:43;12.50;86.90
292;DHT22;23311;48.776;9.162;2023-04-24T08:49:14;12.30;87.40
292;DHT22;23311;48.776;9.162;2023-04-24T08:51:43;12.00;89.60
292;DHT22;23311;48.776;9.162;2023-04-24T08:54:12;12.10;90.80
292;DHT22;23311;48.776;9.162;2023-04-24T08:56:43;12.20;91.20
292;DHT22;23311;48.776;9.162;2023-04-24T08:59:12;12.40;90.10
292;DHT22;23311;48.776;9.162;2023-04-24T09:01:40;13.20;89.50
292;DHT22;23311;48.776;9.162;2023-04-24T09:04:09;13.40;87.30
292;DHT22;23311;48.776;9.162;2023-04-24T09:06:40;12.90;87.30
292;DHT22;23311;48.776;9.162;2023-04-24T09:09:10;12.60;88.20
292;DHT22;23311;48.776;9.162;2023-04-24T09:11:38;12.30;89.20
292;DHT22;23311;48.776;9.162;2023-04-24T09:14:08;12.10;90.40
292;DHT22;23311;48.776;9.162;2023-04-24T09:16:37;12.00;90.90
292;DHT22;23311;48.776;9.162;2023-04-24T09:19:05;11.40;94.40
292;DHT22;23311;48.776;9.162;2023-04-24T09:21:34;11.00;95.50
292;DHT22;23311;48.776;9.162;2023-04-24T09:24:07;11.00;95.50
292;DHT22;23311;48.776;9.162;2023-04-24T09:26:36;11.00;95.50
292;DHT22;23311;48.776;9.162;2023-04-24T09:29:04;10.90;95.50
292;DHT22;23311;48.776;9.162;2023-04-24T09:31:32;10.70;95.50
292;DHT22;23311;48.776;9.162;2023-04-24T09:34:02;10.60;95.50
292;DHT22;23311;48.776;9.162;2023-04-24T09:36:35;10.60;95.50
292;DHT22;23311;48.776;9.162;2023-04-24T09:39:07;10.80;95.50
292;DHT22;23311;48.776;9.162;2023-04-24T09:41:44;11.20;95.50
292;DHT22;23311;48.776;9.162;2023-04-24T09:44:13;11.60;95.50
292;DHT22;23311;48.776;9.162;2023-04-24T09:46:42;12.00;95.50
292;DHT22;23311;48.776;9.162;2023-04-24T09:49:13;12.50;94.40
292;DHT22;23311;48.776;9.162;2023-04-24T09:51:43;12.80;92.20
292;DHT22;23311;48.776;9.162;2023-04-24T09:54:15;13.00;91.20
292;DHT22;23311;48.776;9.162;2023-04-24T09:56:44;12.70;90.30
292;DHT22;23311;48.776;9.162;2023-04-24T09:59:13;12.40;90.40
292;DHT22;23311;48.776;9.162;2023-04-24T10:01:41;12.50;90.10
292;DHT22;23311;48.776;9.162;2023-04-24T10:04:16;12.60;88.60
292;DHT22;23311;48.776;9.162;2023-04-24T10:06:45;12.80;88.40
292;DHT22;23311;48.776;9.162;2023-04-24T10:09:15;13.10;86.80
292;DHT22;23311;48.776;9.162;2023-04-24T10:11:45;12.80;85.60
292;DHT22;23311;48.776;9.162;2023-04-24T10:14:14;13.10;84.70
292;DHT22;23311;48.776;9.162;2023-04-24T10:16:44;13.30;83.60
292;DHT22;23311;48.776;9.162;2023-04-24T10:19:14;14.30;81.20
292;DHT22;23311;48.776;9.162;2023-04-24T10:21:43;15.20;78.20
292;DHT22;23311;48.776;9.162;2023-04-24T10:24:16;15.20;77.00
292;DHT22;23311;48.776;9.162;2023-04-24T10:26:45;15.20;76.20
292;DHT22;23311;48.776;9.162;2023-04-24T10:29:18;15.90;74.90
292;DHT22;23311;48.776;9.162;2023-04-24T10:31:48;16.20;73.60
292;DHT22;23311;48.776;9.162;2023-04-24T10:34:18;15.30;73.90
292;DHT22;23311;48.776;9.162;2023-04-24T10:36:51;14.50;75.60
292;DHT22;23311;48.776;9.162;2023-04-24T10:39:25;14.10;76.70
292;DHT22;23311;48.776;9.162;2023-04-24T10:41:54;13.20;79.10
292;DHT22;23311;48.776;9.162;2023-04-24T10:44:24;13.20;80.00
292;DHT22;23311;48.776;9.162;2023-04-24T10:46:54;13.20;80.60
292;DHT22;23311;48.776;9.162;2023-04-24T10:49:28;13.30;81.10
292;DHT22;23311;48.776;9.162;2023-04-24T10:52:02;13.60;80.50
292;DHT22;23311;48.776;9.162;2023-04-24T10:54:40;13.60;79.80
292;DHT22;23311;48.776;9.162;2023-04-24T10:57:28;13.40;80.30
292;DHT22;23311;48.776;9.162;2023-04-24T11:00:13;13.50;80.60
292;DHT22;23311;48.776;9.162;2023-04-24T11:02:46;13.50;80.70
292;DHT22;23311;48.776;9.162;2023-04-24T11:05:18;13.90;80.70
292;DHT22;23311;48.776;9.162;2023-04-24T11:08:12;14.20;80.10
292;DHT22;23311;48.776;9.162;2023-04-24T11:10:44;13.80;80.00
292;DHT22;23311;48.776;9.162;2023-04-24T11:13:15;13.60;80.90
292;DHT22;23311;48.776;9.162;2023-04-24T11:15:43;13.30;81.50
292;DHT22;23311;48.776;9.162;2023-04-24T11:18:14;13.40;81.20
292;DHT22;23311;48.776;9.162;2023-04-24T11:20:43;13.50;81.20
292;DHT22;23311;48.776;9.162;2023-04-24T11:23:13;13.50;81.00
292;DHT22;23311;48.776;9.162;2023-04-24T11:25:43;13.90;80.10
292;DHT22;23311;48.776;9.162;2023-04-24T11:28:15;13.80;80.00
292;DHT22;23311;48.776;9.162;2023-04-24T11:30:43;14.60;78.70
292;DHT22;23311;48.776;9.162;2023-04-24T11:33:12;14.80;77.60
292;DHT22;23311;48.776;9.162;2023-04-24T11:35:47;15.00;76.60
292;DHT22;23311;48.776;9.162;2023-04-24T11:38:17;15.60;75.70
292;DHT22;23311;48.776;9.162;2023-04-24T11:40:53;16.30;74.50
292;DHT22;23311;48.776;9.162;2023-04-24T11:43:22;16.90;72.90
292;DHT22;23311;48.776;9.162;2023-04-24T11:45:51;15.80;73.20
292;DHT22;23311;48.776;9.162;2023-04-24T11:48:20;14.60;77.50
292;DHT22;23311;48.776;9.162;2023-04-24T11:50:50;13.80;80.00
292;DHT22;23311;48.776;9.162;2023-04-24T11:53:19;13.90;79.90
292;DHT22;23311;48.776;9.162;2023-04-24T11:55:48;13.20;81.30
292;DHT22;23311;48.776;9.162;2023-04-24T11:58:20;13.40;82.90
292;DHT22;23311;48.776;9.162;2023-04-24T12:00:56;13.40;83.60
292;DHT22;23311;48.776;9.162;2023-04-24T12:03:24;13.60;82.40
292;DHT22;23311;48.776;9.162;2023-04-24T12:05:53;13.80;81.70
292;DHT22;23311;48.776;9.162;2023-04-24T12:08:32;14.50;79.40
292;DHT22;23311;48.776;9.162;2023-04-24T12:11:03;14.90;78.70
292;DHT22;23311;48.776;9.162;2023-04-24T12:13:35;15.20;77.80
292;DHT22;23311;48.776;9.162;2023-04-24T12:16:04;13.50;80.40
292;DHT22;23311;48.776;9.162;2023-04-24T12:18:32;14.10;80.10
292;DHT22;23311;48.776;9.162;2023-04-24T12:21:17;14.00;80.00
292;DHT22;23311;48.776;9.162;2023-04-24T12:23:48;13.30;81.20
292;DHT22;23311;48.776;9.162;2023-04-24T12:26:17;12.90;81.80
292;DHT22;23311;48.776;9.162;2023-04-24T12:28:49;13.10;81.10
292;DHT22;23311;48.776;9.162;2023-04-24T12:31:17;13.20;80.80
292;DHT22;23311;48.776;9.162;2023-04-24T12:33:45;13.70;80.10
292;DHT22;23311;48.776;9.162;2023-04-24T12:36:21;13.70;79.70
292;DHT22;23311;48.776;9.162;2023-04-24T12:38:52;13.40;80.40
292;DHT22;23311;48.776;9.162;2023-04-24T12:41:20;13.20;80.50
292;DHT22;23311;48.776;9.162;2023-04-24T12:43:53;13.60;80.80
292;DHT22;23311;48.776;9.162;2023-04-24T12:46:22;14.10;78.90
292;DHT22;23311;48.776;9.162;2023-04-24T12:48:50;14.00;78.40
292;DHT22;23311;48.776;9.162;2023-04-24T12:51:18;14.50;78.50
292;DHT22;23311;48.776;9.162;2023-04-24T12:53:46;14.70;77.50
292;DHT22;23311;48.776;9.162;2023-04-24T12:56:14;14.60;77.70
292;DHT22;23311;48.776;9.162;2023-04-24T12:58:43;14.40;78.00
292;DHT22;23311;48.776;9.162;2023-04-24T13:01:13;14.10;79.10
292;DHT22;23311;48.776;9.162;2023-04-24T13:03:41;14.10;79.30
292;DHT22;23311;48.776;9.162;2023-04-24T13:06:10;13.80;80.40
292;DHT22;23311;48.776;9.162;2023-04-24T13:08:38;13.30;84.90
292;DHT22;23311;48.776;9.162;2023-04-24T13:11:07;12.40;89.50
292;DHT22;23311;48.776;9.162;2023-04-24T13:13:35;12.20;93.40
292;DHT22;23311;48.776;9.162;2023-04-24T13:16:03;12.50;94.30
292;DHT22;23311;48.776;9.162;2023-04-24T13:18:32;12.80;93.30
292;DHT22;23311;48.776;9.162;2023-04-24T13:21:01;12.70;93.40
292;DHT22;23311;48.776;9.162;2023-04-24T13:23:29;13.10;92.50
292;DHT22;23311;48.776;9.162;2023-04-24T13:25:57;13.50;90.70
292;DHT22;23311;48.776;9.162;2023-04-24T13:28:25;14.10;89.70
292;DHT22;23311;48.776;9.162;2023-04-24T13:30:53;14.90;87.30
292;DHT22;23311;48.776;9.162;2023-04-24T13:33:21;15.10;86.60
292;DHT22;23311;48.776;9.162;2023-04-24T13:35:50;14.00;87.80
292;DHT22;23311;48.776;9.162;2023-04-24T13:38:19;14.00;89.50
292;DHT22;23311;48.776;9.162;2023-04-24T13:40:48;13.90;87.50
292;DHT22;23311;48.776;9.162;2023-04-24T13:43:16;13.60;88.40
292;DHT22;23311;48.776;9.162;2023-04-24T13:45:44;13.30;88.10
292;DHT22;23311;48.776;9.162;2023-04-24T13:48:12;12.60;88.80
292;DHT22;23311;48.776;9.162;2023-04-24T13:50:42;11.90;90.40
292;DHT22;23311;48.776;9.162;2023-04-24T13:53:12;11.10;94.10
292;DHT22;23311;48.776;9.162;2023-04-24T13:55:40;10.80;95.50
292;DHT22;23311;48.776;9.162;2023-04-24T13:58:08;10.30;95.50
292;DHT22;23311;48.776;9.162;2023-04-24T14:00:37;10.00;95.50
292;DHT22;23311;48.776;9.162;2023-04-24T14:03:05;10.20;95.50
292;DHT22;23311;48.776;9.162;2023-04-24T14:05:33;10.90;95.50
292;DHT22;23311;48.776;9.162;2023-04-24T14:08:04;11.60;95.50
292;DHT22;23311;48.776;9.162;2023-04-24T14:10:34;12.10;95.50
292;DHT22;23311;48.776;9.162;2023-04-24T14:13:02;11.50;95.50
292;DHT22;23311;48.776;9.162;2023-04-24T14:15:35;11.50;95.50
292;DHT22;23311;48.776;9.162;2023-04-24T14:18:04;11.40;95.50
292;DHT22;23311;48.776;9.162;2023-04-24T14:20:32;12.10;95.50
292;DHT22;23311;48.776;9.162;2023-04-24T14:23:01;12.80;95.50
292;DHT22;23311;48.776;9.162;2023-04-24T14:25:29;13.60;94.60
292;DHT22;23311;48.776;9.162;2023-04-24T14:27:59;13.60;93.50
292;DHT22;23311;48.776;9.162;2023-04-24T14:30:27;13.20;93.60
292;DHT22;23311;48.776;9.162;2023-04-24T14:32:55;13.60;93.10
292;DHT22;23311;48.776;9.162;2023-04-24T14:35:23;14.80;90.20
292;DHT22;23311;48.776;9.162;2023-04-24T14:37:54;15.00;87.10
292;DHT22;23311;48.776;9.162;2023-04-24T14:40:22;14.90;86.90
292;DHT22;23311;48.776;9.162;2023-04-24T14:43:12;15.30;85.80
292;DHT22;23311;48.776;9.162;2023-04-24T14:45:40;13.70;88.20
292;DHT22;23311;48.776;9.162;2023-04-24T14:48:08;12.90;90.40
292;DHT22;23311;48.776;9.162;2023-04-24T14:50:38;13.10;91.00
292;DHT22;23311;48.776;9.162;2023-04-24T14:53:06;13.10;90.70
292;DHT22;23311;48.776;9.162;2023-04-24T14:55:34;13.20;90.30
292;DHT22;23311;48.776;9.162;2023-04-24T14:58:03;12.90;90.10
292;DHT22;23311;48.776;9.162;2023-04-24T15:00:33;13.40;90.60
292;DHT22;23311;48.776;9.162;2023-04-24T15:03:01;14.30;87.90
292;DHT22;23311;48.776;9.162;2023-04-24T15:05:29;15.20;84.70
292;DHT22;23311;48.776;9.162;2023-04-24T15:07:58;16.10;83.20
292;DHT22;23311;48.776;9.162;2023-04-24T15:10:26;15.10;83.60
292;DHT22;23311;48.776;9.162;2023-04-24T15:12:56;14.00;86.20
292;DHT22;23311;48.776;9.162;2023-04-24T15:15:24;13.20;87.80
292;DHT22;23311;48.776;9.162;2023-04-24T15:17:53;13.10;88.80
292;DHT22;23311;48.776;9.162;2023-04-24T15:20:22;12.70;89.60
292;DHT22;23311;48.776;9.162;2023-04-24T15:22:50;13.00;89.50
292;DHT22;23311;48.776;9.162;2023-04-24T15:25:18;13.20;88.20
292;DHT22;23311;48.776;9.162;2023-04-24T15:27:46;13.10;88.20
292;DHT22;23311;48.776;9.162;2023-04-24T15:30:15;12.50;88.80
292;DHT22;23311;48.776;9.162;2023-04-24T15:32:43;12.30;90.00
292;DHT22;23311;48.776;9.162;2023-04-24T15:35:12;12.30;90.20
292;DHT22;23311;48.776;9.162;2023-04-24T15:37:40;12.20;91.50
292;DHT22;23311;48.776;9.162;2023-04-24T15:40:09;12.00;94.90
292;DHT22;23311;48.776;9.162;2023-04-24T15:42:40;11.50;95.50
292;DHT22;23311;48.776;9.162;2023-04-24T15:45:09;11.00;95.50
292;DHT22;23311;48.776;9.162;2023-04-24T15:47:38;11.10;95.50
292;DHT22;23311;48.776;9.162;2023-04-24T15:50:07;10.90;95.50
292;DHT22;23311;48.776;9.162;2023-04-24T15:52:41;10.90;95.50
292;DHT22;23311;48.776;9.162;2023-04-24T15:55:10;10.90;95.50
292;DHT22;23311;48.776;9.162;2023-04-24T15:57:40;10.90;95.50
292;DHT22;23311;48.776;9.162;2023-04-24T16:00:10;10.80;95.50
292;DHT22;23311;48.776;9.162;2023-04-24T16:02:39;11.10;95.50
292;DHT22;23311;48.776;9.162;2023-04-24T16:05:08;11.70;95.50
292;DHT22;23311;48.776;9.162;2023-04-24T16:07:37;12.00;95.50
292;DHT22;23311;48.776;9.162;2023-04-24T16:10:13;12.10;95.50
292;DHT22;23311;48.776;9.162;2023-04-24T16:12:43;12.30;95.50
292;DHT22;23311;48.776;9.162;2023-04-24T16:15:17;12.60;95.50